createdAt,value
2017-09-16T00:02:20.471Z,16.46
2017-09-16T00:04:46.682Z,16.53
2017-09-16T00:07:12.970Z,16.47
2017-09-16T00:09:39.182Z,16.29
2017-09-16T00:12:05.385Z,16.28
2017-09-16T00:14:31.668Z,16.25
2017-09-16T00:16:57.895Z,16.14
2017-09-16T00:19:24.101Z,16.09
2017-09-16T00:21:50.371Z,16.00
2017-09-16T00:24:16.574Z,15.88
2017-09-16T00:26:42.799Z,16.04
2017-09-16T00:29:09.066Z,16.01
2017-09-16T00:31:35.278Z,15.97
2017-09-16T00:34:01.478Z,15.98
2017-09-16T00:36:27.755Z,15.90
2017-09-16T00:38:53.982Z,15.81
2017-09-16T00:41:20.310Z,15.76
2017-09-16T00:43:46.565Z,15.68
2017-09-16T00:46:12.769Z,16.02
2017-09-16T00:48:38.991Z,15.89
2017-09-16T00:51:05.284Z,15.79
2017-09-16T00:53:31.491Z,15.94
2017-09-16T00:55:57.705Z,15.86
2017-09-16T00:58:23.979Z,15.80
2017-09-16T01:00:50.192Z,15.73
2017-09-16T01:03:16.415Z,15.61
2017-09-16T01:05:42.700Z,15.66
2017-09-16T01:08:09.005Z,15.74
2017-09-16T01:10:35.232Z,15.74
2017-09-16T01:13:01.532Z,15.73
2017-09-16T01:15:27.755Z,15.69
2017-09-16T01:17:54.136Z,15.60
2017-09-16T01:20:20.764Z,15.62
2017-09-16T01:22:47.016Z,15.66
2017-09-16T01:25:13.653Z,15.60
2017-09-16T01:27:40.261Z,15.74
2017-09-16T01:30:06.682Z,15.67
2017-09-16T01:32:32.957Z,15.57
2017-09-16T01:34:59.185Z,15.47
2017-09-16T01:37:25.395Z,15.39
2017-09-16T01:39:51.626Z,15.37
2017-09-16T01:42:17.854Z,15.39
2017-09-16T01:44:44.096Z,15.63
2017-09-16T01:47:10.320Z,15.67
2017-09-16T01:49:36.552Z,15.71
2017-09-16T01:52:02.913Z,15.59
2017-09-16T01:54:29.377Z,15.44
2017-09-16T01:56:55.842Z,15.39
2017-09-16T01:59:22.254Z,15.34
2017-09-16T02:01:48.678Z,15.27
2017-09-16T02:04:14.938Z,15.18
2017-09-16T02:06:41.171Z,15.16
2017-09-16T02:09:07.680Z,15.11
2017-09-16T02:11:34.095Z,15.23
2017-09-16T02:14:00.682Z,15.19
2017-09-16T02:16:27.331Z,15.30
2017-09-16T02:18:53.739Z,15.32
2017-09-16T02:21:19.949Z,15.23
2017-09-16T02:23:46.239Z,15.14
2017-09-16T02:26:12.465Z,14.95
2017-09-16T02:28:38.672Z,14.83
2017-09-16T02:31:04.952Z,14.77
2017-09-16T02:33:31.185Z,14.86
2017-09-16T02:35:57.540Z,14.90
2017-09-16T02:38:24.026Z,15.07
2017-09-16T02:40:50.471Z,15.06
2017-09-16T02:43:16.917Z,14.95
2017-09-16T02:45:43.457Z,14.84
2017-09-16T02:48:09.729Z,14.97
2017-09-16T02:50:35.921Z,14.91
2017-09-16T02:53:02.385Z,15.05
2017-09-16T02:55:28.602Z,15.06
2017-09-16T02:57:54.805Z,15.33
2017-09-16T03:00:21.072Z,15.15
2017-09-16T03:02:47.483Z,15.03
2017-09-16T03:05:13.720Z,15.02
2017-09-16T03:07:40.004Z,14.87
2017-09-16T03:10:06.222Z,14.73
2017-09-16T03:12:32.471Z,14.61
2017-09-16T03:14:58.769Z,14.74
2017-09-16T03:17:25.000Z,14.82
2017-09-16T03:19:51.235Z,14.74
2017-09-16T03:22:17.500Z,14.63
2017-09-16T03:24:43.730Z,14.54
2017-09-16T03:27:09.954Z,14.75
2017-09-16T03:29:36.225Z,14.69
2017-09-16T03:32:02.434Z,14.59
2017-09-16T03:34:28.650Z,14.31
2017-09-16T03:36:54.936Z,14.41
2017-09-16T03:39:21.333Z,14.45
2017-09-16T03:41:47.556Z,14.54
2017-09-16T03:44:13.835Z,14.47
2017-09-16T03:46:40.063Z,14.47
2017-09-16T03:49:06.871Z,14.44
2017-09-16T03:51:33.511Z,14.45
2017-09-16T03:53:59.945Z,14.37
2017-09-16T03:56:26.582Z,14.58
2017-09-16T03:58:52.891Z,14.62
2017-09-16T04:01:19.107Z,14.63
2017-09-16T04:03:45.352Z,14.65
2017-09-16T04:06:11.867Z,14.69
2017-09-16T04:08:38.289Z,14.81
2017-09-16T04:11:04.629Z,14.99
2017-09-16T04:13:31.206Z,15.72
2017-09-16T04:15:57.639Z,16.40
2017-09-16T04:18:24.073Z,16.99
2017-09-16T04:20:50.697Z,17.58
2017-09-16T04:23:17.144Z,18.09
2017-09-16T04:25:43.784Z,18.40
2017-09-16T04:28:10.079Z,18.75
2017-09-16T04:30:36.316Z,19.04
2017-09-16T04:33:02.529Z,19.23
2017-09-16T04:35:28.886Z,19.73
2017-09-16T04:37:55.102Z,20.39
2017-09-16T04:40:21.319Z,20.75
2017-09-16T04:42:47.596Z,21.20
2017-09-16T04:45:13.819Z,21.54
2017-09-16T04:47:40.045Z,22.10
2017-09-16T04:50:06.318Z,22.64
2017-09-16T04:52:32.549Z,22.98
2017-09-16T04:54:58.795Z,23.61
2017-09-16T04:57:25.083Z,23.90
2017-09-16T04:59:51.306Z,24.15
2017-09-16T05:02:17.523Z,24.30
2017-09-16T05:04:43.816Z,24.31
2017-09-16T05:07:10.044Z,24.88
2017-09-16T05:09:36.277Z,24.96
2017-09-16T05:12:02.544Z,25.32
2017-09-16T05:14:28.770Z,25.12
2017-09-16T05:16:54.992Z,25.78
2017-09-16T05:19:21.269Z,25.75
2017-09-16T05:21:47.506Z,26.09
2017-09-16T05:24:13.735Z,26.41
2017-09-16T05:26:40.018Z,26.46
2017-09-16T05:29:06.245Z,26.79
2017-09-16T05:31:32.476Z,27.31
2017-09-16T05:33:58.746Z,26.73
2017-09-16T05:36:24.988Z,27.11
2017-09-16T05:38:51.226Z,27.82
2017-09-16T05:41:17.504Z,28.10
2017-09-16T05:43:43.721Z,28.37
2017-09-16T05:46:09.994Z,28.99
2017-09-16T05:48:36.237Z,29.68
2017-09-16T05:51:02.601Z,30.12
2017-09-16T05:53:28.816Z,30.35
2017-09-16T05:55:55.092Z,31.19
2017-09-16T05:58:21.307Z,31.52
2017-09-16T06:00:47.545Z,31.46
2017-09-16T06:03:13.815Z,31.77
2017-09-16T06:05:40.050Z,32.25
2017-09-16T06:08:06.294Z,32.75
2017-09-16T06:10:32.548Z,32.57
2017-09-16T06:12:58.766Z,33.24
2017-09-16T06:15:24.974Z,32.89
2017-09-16T06:17:51.242Z,33.23
2017-09-16T06:20:17.465Z,33.39
2017-09-16T06:22:43.682Z,33.51
2017-09-16T06:25:09.964Z,34.00
2017-09-16T06:27:36.193Z,33.90
2017-09-16T06:30:02.428Z,33.90
2017-09-16T06:32:28.712Z,34.24
2017-09-16T06:34:54.945Z,34.35
2017-09-16T06:37:21.161Z,35.07
2017-09-16T06:39:47.441Z,34.62
2017-09-16T06:42:13.775Z,34.87
2017-09-16T06:44:39.998Z,35.33
2017-09-16T06:47:06.273Z,36.11
2017-09-16T06:49:32.498Z,37.07
2017-09-16T06:51:58.741Z,37.07
2017-09-16T06:54:25.023Z,36.84
2017-09-16T06:56:51.247Z,37.49
2017-09-16T06:59:17.449Z,37.33
2017-09-16T07:01:43.739Z,36.98
2017-09-16T07:04:09.967Z,36.59
2017-09-16T07:06:36.408Z,36.88
2017-09-16T07:09:02.688Z,37.11
2017-09-16T07:11:28.916Z,37.21
2017-09-16T07:13:55.129Z,37.16
2017-09-16T07:16:21.391Z,37.57
2017-09-16T07:18:47.612Z,37.49
2017-09-16T07:21:13.839Z,37.86
2017-09-16T07:23:40.125Z,38.54
2017-09-16T07:26:06.355Z,39.18
2017-09-16T07:28:32.585Z,38.76
2017-09-16T07:30:58.858Z,39.21
2017-09-16T07:33:25.081Z,39.16
2017-09-16T07:35:51.294Z,38.98
2017-09-16T07:38:17.569Z,39.54
2017-09-16T07:40:43.811Z,39.50
2017-09-16T07:43:10.053Z,39.56
2017-09-16T07:45:36.321Z,40.03
2017-09-16T07:48:02.529Z,40.44
2017-09-16T07:50:28.745Z,40.95
2017-09-16T07:52:55.032Z,41.31
2017-09-16T07:55:21.245Z,41.67
2017-09-16T07:57:47.475Z,41.28
2017-09-16T08:00:13.767Z,41.06
2017-09-16T08:02:40.024Z,40.25
2017-09-16T08:05:06.218Z,39.70
2017-09-16T08:07:32.516Z,38.51
2017-09-16T08:09:58.726Z,39.37
2017-09-16T08:12:24.937Z,40.04
2017-09-16T08:14:51.194Z,40.70
2017-09-16T08:17:17.419Z,40.68
2017-09-16T08:19:43.652Z,40.25
2017-09-16T08:22:09.926Z,39.83
2017-09-16T08:24:36.158Z,39.41
2017-09-16T08:27:02.391Z,40.10
2017-09-16T08:29:28.683Z,38.82
2017-09-16T08:31:54.895Z,39.60
2017-09-16T08:34:21.121Z,39.16
2017-09-16T08:36:47.410Z,38.54
2017-09-16T08:39:13.621Z,37.28
2017-09-16T08:41:39.861Z,37.12
2017-09-16T08:44:06.147Z,37.53
2017-09-16T08:46:32.387Z,38.68
2017-09-16T08:48:58.611Z,39.28
2017-09-16T08:51:24.892Z,39.09
2017-09-16T08:53:51.113Z,39.00
2017-09-16T08:56:17.341Z,38.76
2017-09-16T08:58:43.628Z,39.78
2017-09-16T09:01:09.858Z,40.22
2017-09-16T09:03:36.076Z,40.53
2017-09-16T09:06:02.355Z,41.00
2017-09-16T09:08:28.575Z,42.28
2017-09-16T09:10:54.781Z,41.99
2017-09-16T09:13:21.019Z,42.18
2017-09-16T09:15:47.244Z,42.33
2017-09-16T09:18:13.480Z,41.31
2017-09-16T09:20:39.750Z,40.37
2017-09-16T09:23:05.961Z,40.84
2017-09-16T09:25:32.173Z,41.36
2017-09-16T09:27:58.476Z,41.71
2017-09-16T09:30:24.682Z,41.47
2017-09-16T09:32:50.912Z,40.87
2017-09-16T09:35:17.182Z,41.64
2017-09-16T09:37:43.412Z,41.49
2017-09-16T09:40:09.640Z,41.39
2017-09-16T09:42:35.910Z,40.79
2017-09-16T09:45:02.139Z,40.71
2017-09-16T09:47:28.360Z,40.82
2017-09-16T09:49:54.642Z,40.89
2017-09-16T09:52:20.913Z,41.49
2017-09-16T09:54:47.161Z,41.98
2017-09-16T09:57:13.480Z,41.94
2017-09-16T09:59:39.711Z,41.35
2017-09-16T10:02:05.936Z,41.37
2017-09-16T10:04:32.221Z,41.60
2017-09-16T10:06:58.439Z,40.87
2017-09-16T10:09:24.652Z,41.03
2017-09-16T10:11:50.932Z,41.24
2017-09-16T10:14:17.314Z,41.41
2017-09-16T10:16:43.545Z,41.28
2017-09-16T10:19:09.844Z,41.08
2017-09-16T10:21:36.044Z,42.83
2017-09-16T10:24:02.249Z,42.69
2017-09-16T10:26:28.517Z,42.53
2017-09-16T10:28:54.738Z,43.20
2017-09-16T10:31:20.960Z,42.92
2017-09-16T10:33:47.222Z,42.48
2017-09-16T10:36:13.440Z,42.22
2017-09-16T10:38:39.668Z,42.61
2017-09-16T10:41:05.939Z,43.44
2017-09-16T10:43:32.177Z,43.36
2017-09-16T10:45:58.389Z,43.15
2017-09-16T10:48:24.642Z,42.67
2017-09-16T10:50:50.905Z,43.46
2017-09-16T10:53:17.117Z,43.20
2017-09-16T10:55:43.392Z,43.87
2017-09-16T10:58:09.598Z,43.54
2017-09-16T11:00:35.818Z,43.46
2017-09-16T11:03:02.088Z,42.45
2017-09-16T11:05:28.308Z,41.99
2017-09-16T11:07:54.543Z,41.41
2017-09-16T11:10:20.829Z,40.87
2017-09-16T11:12:47.076Z,41.43
2017-09-16T11:15:13.301Z,41.02
2017-09-16T11:17:39.675Z,41.17
2017-09-16T11:20:05.911Z,41.86
2017-09-16T11:22:32.136Z,41.95
2017-09-16T11:24:58.416Z,43.37
2017-09-16T11:27:24.644Z,44.33
2017-09-16T11:29:50.884Z,45.14
2017-09-16T11:32:17.156Z,44.81
2017-09-16T11:34:43.402Z,44.52
2017-09-16T11:37:09.619Z,43.99
2017-09-16T11:39:35.903Z,43.25
2017-09-16T11:42:02.137Z,43.91
2017-09-16T11:44:28.357Z,42.56
2017-09-16T11:46:54.782Z,43.07
2017-09-16T11:49:20.995Z,42.37
2017-09-16T11:51:47.207Z,41.96
2017-09-16T11:54:13.480Z,40.85
2017-09-16T11:56:39.703Z,40.64
2017-09-16T11:59:05.918Z,40.56
2017-09-16T12:01:32.173Z,41.43
2017-09-16T12:03:58.398Z,42.96
2017-09-16T12:06:24.609Z,44.31
2017-09-16T12:08:50.906Z,44.17
2017-09-16T12:11:17.111Z,42.88
2017-09-16T12:13:43.320Z,42.02
2017-09-16T12:16:09.588Z,41.91
2017-09-16T12:18:35.815Z,42.07
2017-09-16T12:21:02.030Z,41.50
2017-09-16T12:23:28.288Z,42.48
2017-09-16T12:25:54.498Z,41.97
2017-09-16T12:28:20.719Z,41.95
2017-09-16T12:30:46.969Z,43.49
2017-09-16T12:33:13.180Z,44.14
2017-09-16T12:35:39.375Z,44.44
2017-09-16T12:38:05.636Z,45.25
2017-09-16T12:40:31.839Z,45.67
2017-09-16T12:42:58.059Z,45.17
2017-09-16T12:45:24.331Z,44.65
2017-09-16T12:47:50.519Z,44.96
2017-09-16T12:50:16.770Z,44.53
2017-09-16T12:52:43.025Z,45.41
2017-09-16T12:55:09.394Z,45.32
2017-09-16T12:57:35.585Z,44.48
2017-09-16T13:00:01.860Z,44.60
2017-09-16T13:02:28.062Z,43.22
2017-09-16T13:04:54.249Z,44.08
2017-09-16T13:07:20.568Z,43.41
2017-09-16T13:09:46.773Z,43.36
2017-09-16T13:12:12.954Z,43.70
2017-09-16T13:14:39.229Z,43.93
2017-09-16T13:17:05.439Z,44.53
2017-09-16T13:19:31.655Z,44.52
2017-09-16T13:21:57.895Z,44.32
2017-09-16T13:24:24.086Z,43.78
2017-09-16T13:26:50.291Z,43.41
2017-09-16T13:29:16.497Z,41.76
2017-09-16T13:31:42.702Z,40.39
2017-09-16T13:34:08.911Z,39.04
2017-09-16T13:36:35.124Z,38.36
2017-09-16T13:39:01.319Z,38.12
2017-09-16T13:41:27.557Z,37.72
2017-09-16T13:43:53.755Z,36.54
2017-09-16T13:46:19.968Z,36.21
2017-09-16T13:48:46.161Z,35.91
2017-09-16T13:51:12.376Z,35.95
2017-09-16T13:53:38.694Z,35.91
2017-09-16T13:56:04.961Z,35.70
2017-09-16T13:58:31.206Z,35.36
2017-09-16T14:00:57.439Z,35.27
2017-09-16T14:03:23.637Z,35.21
2017-09-16T14:05:49.893Z,35.15
2017-09-16T14:08:16.115Z,35.08
2017-09-16T14:10:42.336Z,35.02
2017-09-16T14:13:08.598Z,34.95
2017-09-16T14:15:34.809Z,34.89
2017-09-16T14:18:01.014Z,34.81
2017-09-16T14:20:27.256Z,34.67
2017-09-16T14:22:53.475Z,34.62
2017-09-16T14:25:19.683Z,34.54
2017-09-16T14:27:45.945Z,34.50
2017-09-16T14:30:12.138Z,34.46
2017-09-16T14:32:38.523Z,34.34
2017-09-16T14:35:04.760Z,34.35
2017-09-16T14:37:30.981Z,34.32
2017-09-16T14:39:57.211Z,34.25
2017-09-16T14:42:23.481Z,34.27
2017-09-16T14:44:49.661Z,34.24
2017-09-16T14:47:15.932Z,34.24
2017-09-16T14:49:42.192Z,34.15
2017-09-16T14:52:08.414Z,34.08
2017-09-16T14:54:34.632Z,33.94
2017-09-16T14:57:00.907Z,33.97
2017-09-16T14:59:27.270Z,34.03
2017-09-16T15:01:53.478Z,33.97
2017-09-16T15:04:19.752Z,33.89
2017-09-16T15:06:45.972Z,33.82
2017-09-16T15:09:12.169Z,33.70
2017-09-16T15:11:38.419Z,33.64
2017-09-16T15:14:04.631Z,33.57
2017-09-16T15:16:30.844Z,33.43
2017-09-16T15:18:57.100Z,33.26
2017-09-16T15:21:23.293Z,33.12
2017-09-16T15:23:49.506Z,33.09
2017-09-16T15:26:15.778Z,33.01
2017-09-16T15:28:41.996Z,32.93
2017-09-16T15:31:08.221Z,32.85
2017-09-16T15:33:34.494Z,32.73
2017-09-16T15:36:00.851Z,32.64
2017-09-16T15:38:27.074Z,32.53
2017-09-16T15:40:53.356Z,32.41
2017-09-16T15:43:19.560Z,32.29
2017-09-16T15:45:45.772Z,32.15
2017-09-16T15:48:12.047Z,32.00
2017-09-16T15:50:38.255Z,31.81
2017-09-16T15:53:04.467Z,31.56
2017-09-16T15:55:30.718Z,31.28
2017-09-16T15:57:56.919Z,30.94
2017-09-16T16:00:23.129Z,30.63
2017-09-16T16:02:49.371Z,30.38
2017-09-16T16:05:15.579Z,30.09
2017-09-16T16:07:41.780Z,29.76
2017-09-16T16:10:08.043Z,29.51
2017-09-16T16:12:34.273Z,29.29
2017-09-16T16:15:00.503Z,29.01
2017-09-16T16:17:26.759Z,28.77
2017-09-16T16:19:52.962Z,28.54
2017-09-16T16:22:19.167Z,28.31
2017-09-16T16:24:45.423Z,28.05
2017-09-16T16:27:11.618Z,27.82
2017-09-16T16:29:37.806Z,27.69
2017-09-16T16:32:04.069Z,27.53
2017-09-16T16:34:30.294Z,27.33
2017-09-16T16:36:56.609Z,27.11
2017-09-16T16:39:22.859Z,26.99
2017-09-16T16:41:49.039Z,26.82
2017-09-16T16:44:15.256Z,26.59
2017-09-16T16:46:41.497Z,26.44
2017-09-16T16:49:07.708Z,26.34
2017-09-16T16:51:33.994Z,26.21
2017-09-16T16:54:00.258Z,26.10
2017-09-16T16:56:26.476Z,25.86
2017-09-16T16:58:52.682Z,25.64
2017-09-16T17:01:18.942Z,25.50
2017-09-16T17:03:45.197Z,25.63
2017-09-16T17:06:11.419Z,25.76
2017-09-16T17:08:37.725Z,25.77
2017-09-16T17:11:03.952Z,25.63
2017-09-16T17:13:30.179Z,25.40
2017-09-16T17:15:56.434Z,25.24
2017-09-16T17:18:22.655Z,25.06
2017-09-16T17:20:48.907Z,24.79
2017-09-16T17:23:15.173Z,24.43
2017-09-16T17:25:41.584Z,24.67
2017-09-16T17:28:07.817Z,24.74
2017-09-16T17:30:34.067Z,24.68
2017-09-16T17:33:00.275Z,24.68
2017-09-16T17:35:26.468Z,24.63
2017-09-16T17:37:52.748Z,24.50
2017-09-16T17:40:19.003Z,24.39
2017-09-16T17:42:45.384Z,24.20
2017-09-16T17:45:11.637Z,24.04
2017-09-16T17:47:37.835Z,23.94
2017-09-16T17:50:04.047Z,23.84
2017-09-16T17:52:30.330Z,23.73
2017-09-16T17:54:56.531Z,23.70
2017-09-16T17:57:22.729Z,23.55
2017-09-16T17:59:48.989Z,23.37
2017-09-16T18:02:15.227Z,23.25
2017-09-16T18:04:41.425Z,23.32
2017-09-16T18:07:07.777Z,23.28
2017-09-16T18:09:33.965Z,23.14
2017-09-16T18:12:00.153Z,23.04
2017-09-16T18:14:26.423Z,22.98
2017-09-16T18:16:52.616Z,22.90
2017-09-16T18:19:18.834Z,22.83
2017-09-16T18:21:45.104Z,22.93
2017-09-16T18:24:11.317Z,22.77
2017-09-16T18:26:37.540Z,22.63
2017-09-16T18:29:03.806Z,22.53
2017-09-16T18:31:30.001Z,22.44
2017-09-16T18:33:56.215Z,22.47
2017-09-16T18:36:22.484Z,22.44
2017-09-16T18:38:48.689Z,22.33
2017-09-16T18:41:14.922Z,22.29
2017-09-16T18:43:41.177Z,22.28
2017-09-16T18:46:07.376Z,22.21
2017-09-16T18:48:33.585Z,22.15
2017-09-16T18:50:59.853Z,21.94
2017-09-16T18:53:26.068Z,21.97
2017-09-16T18:55:52.296Z,22.01
2017-09-16T18:58:18.573Z,22.06
2017-09-16T19:00:44.832Z,22.06
2017-09-16T19:03:11.156Z,22.09
2017-09-16T19:05:37.449Z,21.97
2017-09-16T19:08:03.672Z,21.90
2017-09-16T19:10:30.026Z,21.97
2017-09-16T19:12:56.291Z,21.95
2017-09-16T19:15:22.516Z,21.85
2017-09-16T19:17:48.732Z,21.77
2017-09-16T19:20:15.029Z,21.77
2017-09-16T19:22:41.343Z,21.89
2017-09-16T19:25:07.571Z,21.89
2017-09-16T19:27:33.849Z,21.78
2017-09-16T19:30:00.047Z,21.87
2017-09-16T19:32:26.244Z,21.94
2017-09-16T19:34:52.493Z,21.89
2017-09-16T19:37:18.673Z,21.97
2017-09-16T19:39:44.881Z,22.00
2017-09-16T19:42:11.161Z,21.98
2017-09-16T19:44:37.379Z,22.00
2017-09-16T19:47:03.572Z,21.98
2017-09-16T19:49:29.839Z,21.90
2017-09-16T19:51:56.028Z,21.76
2017-09-16T19:54:22.362Z,21.58
2017-09-16T19:56:48.620Z,21.50
2017-09-16T19:59:15.448Z,21.37
2017-09-16T20:01:41.673Z,21.21
2017-09-16T20:04:07.933Z,21.10
2017-09-16T20:06:34.134Z,21.12
2017-09-16T20:09:00.354Z,21.20
2017-09-16T20:11:26.614Z,21.21
2017-09-16T20:13:52.837Z,21.20
2017-09-16T20:16:19.050Z,21.20
2017-09-16T20:18:45.313Z,21.10
2017-09-16T20:21:11.521Z,20.98
2017-09-16T20:23:37.741Z,20.83
2017-09-16T20:26:03.991Z,20.72
2017-09-16T20:28:30.199Z,20.62
2017-09-16T20:30:56.609Z,20.78
2017-09-16T20:33:22.888Z,20.72
2017-09-16T20:35:49.083Z,20.58
2017-09-16T20:38:15.301Z,20.45
2017-09-16T20:40:41.574Z,20.41
2017-09-16T20:43:07.784Z,20.34
2017-09-16T20:45:33.990Z,20.46
2017-09-16T20:48:00.280Z,20.37
2017-09-16T20:50:26.492Z,20.41
2017-09-16T20:52:52.698Z,20.33
2017-09-16T20:55:18.971Z,20.52
2017-09-16T20:57:45.181Z,20.57
2017-09-16T21:00:11.397Z,20.55
2017-09-16T21:02:37.670Z,20.45
2017-09-16T21:05:03.881Z,20.28
2017-09-16T21:07:30.102Z,20.03
2017-09-16T21:09:56.370Z,20.00
2017-09-16T21:12:22.578Z,20.09
2017-09-16T21:14:48.800Z,20.03
2017-09-16T21:17:15.056Z,20.07
2017-09-16T21:19:41.259Z,19.99
2017-09-16T21:22:07.464Z,20.00
2017-09-16T21:24:33.710Z,19.92
2017-09-16T21:26:59.919Z,19.82
2017-09-16T21:29:26.287Z,19.62
2017-09-16T21:31:52.545Z,19.48
2017-09-16T21:34:18.762Z,19.37
2017-09-16T21:36:44.983Z,19.39
2017-09-16T21:39:11.258Z,19.33
2017-09-16T21:41:37.473Z,19.44
2017-09-16T21:44:03.701Z,19.33
2017-09-16T21:46:29.949Z,19.17
2017-09-16T21:48:56.152Z,19.10
2017-09-16T21:51:22.353Z,19.11
2017-09-16T21:53:48.598Z,19.30
2017-09-16T21:56:14.799Z,19.51
2017-09-16T21:58:41.001Z,19.54
2017-09-16T22:01:07.264Z,19.50
2017-09-16T22:03:33.464Z,19.51
2017-09-16T22:06:00.136Z,19.48
2017-09-16T22:08:26.476Z,19.42
2017-09-16T22:10:52.697Z,19.43
2017-09-16T22:13:18.911Z,19.48
2017-09-16T22:15:45.177Z,19.62
2017-09-16T22:18:11.400Z,19.66
2017-09-16T22:20:37.637Z,19.64
2017-09-16T22:23:03.912Z,19.53
2017-09-16T22:25:30.137Z,19.38
2017-09-16T22:27:56.355Z,19.23
2017-09-16T22:30:22.628Z,19.28
2017-09-16T22:32:48.849Z,19.09
2017-09-16T22:35:15.093Z,19.01
2017-09-16T22:37:41.384Z,19.07
2017-09-16T22:40:07.614Z,18.87
2017-09-16T22:42:33.837Z,18.91
2017-09-16T22:45:00.198Z,18.94
2017-09-16T22:47:26.426Z,19.02
2017-09-16T22:49:52.663Z,19.07
2017-09-16T22:52:18.951Z,19.14
2017-09-16T22:54:45.320Z,19.14
2017-09-16T22:57:11.541Z,19.29
2017-09-16T22:59:37.855Z,19.36
2017-09-16T23:02:04.215Z,19.24
2017-09-16T23:04:30.442Z,19.32
2017-09-16T23:06:56.724Z,19.37
2017-09-16T23:09:22.935Z,19.19
2017-09-16T23:11:49.156Z,19.01
2017-09-16T23:14:15.423Z,18.85
2017-09-16T23:16:41.656Z,18.62
2017-09-16T23:19:07.980Z,18.63
2017-09-16T23:21:34.241Z,18.64
2017-09-16T23:24:00.453Z,18.51
2017-09-16T23:26:26.686Z,18.58
2017-09-16T23:28:52.983Z,18.54
2017-09-16T23:31:19.204Z,18.58
2017-09-16T23:33:45.424Z,18.34
2017-09-16T23:36:11.704Z,18.13
2017-09-16T23:38:37.947Z,18.02
2017-09-16T23:41:04.157Z,17.83
2017-09-16T23:43:30.507Z,17.72
2017-09-16T23:45:56.710Z,17.63
2017-09-16T23:48:22.935Z,17.66
2017-09-16T23:50:49.210Z,17.69
2017-09-16T23:53:15.433Z,17.79
2017-09-16T23:55:41.638Z,17.66
2017-09-16T23:58:07.899Z,17.95
